createdAt,value
2022-10-06T00:02:19.212Z,15.60
2022-10-06T00:04:47.013Z,15.60
2022-10-06T00:07:15.164Z,15.50
2022-10-06T00:09:42.277Z,15.50
2022-10-06T00:12:09.938Z,15.50
2022-10-06T00:14:37.655Z,15.50
2022-10-06T00:17:04.732Z,15.50
2022-10-06T00:19:31.489Z,15.40
2022-10-06T00:21:58.287Z,15.40
2022-10-06T00:24:24.973Z,15.40
2022-10-06T00:26:51.682Z,15.40
2022-10-06T00:29:18.809Z,15.40
2022-10-06T00:31:45.742Z,15.40
2022-10-06T00:34:12.840Z,15.40
2022-10-06T00:36:39.819Z,15.30
2022-10-06T00:39:06.634Z,15.30
2022-10-06T00:41:33.354Z,15.40
2022-10-06T00:44:00.175Z,15.40
2022-10-06T00:46:26.908Z,15.40
2022-10-06T00:49:02.388Z,15.50
2022-10-06T00:51:31.795Z,15.50
2022-10-06T00:53:58.533Z,15.50
2022-10-06T00:56:26.065Z,15.50
2022-10-06T00:58:53.082Z,15.50
2022-10-06T01:01:19.803Z,15.50
2022-10-06T01:03:57.028Z,15.50
2022-10-06T01:06:23.668Z,15.50
2022-10-06T01:08:50.923Z,15.40
2022-10-06T01:11:17.523Z,15.40
2022-10-06T01:13:45.258Z,15.40
2022-10-06T01:16:26.967Z,15.50
2022-10-06T01:18:56.044Z,15.50
2022-10-06T01:21:34.760Z,15.60
2022-10-06T01:24:02.935Z,15.60
2022-10-06T01:26:31.715Z,15.70
2022-10-06T01:28:58.558Z,15.70
2022-10-06T01:31:26.231Z,15.70
2022-10-06T01:33:54.161Z,15.70
2022-10-06T01:36:21.196Z,15.70
2022-10-06T01:38:47.922Z,15.70
2022-10-06T01:41:14.582Z,15.80
2022-10-06T01:43:41.210Z,15.80
2022-10-06T01:46:07.906Z,15.80
2022-10-06T01:48:36.892Z,15.80
2022-10-06T01:51:03.828Z,15.80
2022-10-06T01:53:30.568Z,15.80
2022-10-06T01:56:00.392Z,15.80
2022-10-06T01:58:27.516Z,15.80
2022-10-06T02:00:54.474Z,15.80
2022-10-06T02:03:21.140Z,15.80
2022-10-06T02:05:47.753Z,15.90
2022-10-06T02:08:14.625Z,15.90
2022-10-06T02:10:41.263Z,16.00
2022-10-06T02:13:07.892Z,16.10
2022-10-06T02:15:34.696Z,16.20
2022-10-06T02:18:01.395Z,16.10
2022-10-06T02:20:28.151Z,16.30
2022-10-06T02:22:54.775Z,16.30
2022-10-06T02:25:21.509Z,16.40
2022-10-06T02:27:48.123Z,16.40
2022-10-06T02:30:14.910Z,16.50
2022-10-06T02:32:43.099Z,16.50
2022-10-06T02:35:12.787Z,16.60
2022-10-06T02:37:40.767Z,16.60
2022-10-06T02:40:08.585Z,16.60
2022-10-06T02:42:39.667Z,16.60
2022-10-06T02:45:07.243Z,16.70
2022-10-06T02:47:35.412Z,16.70
2022-10-06T02:50:05.214Z,16.70
2022-10-06T02:52:34.298Z,16.70
2022-10-06T02:55:02.236Z,16.70
2022-10-06T02:57:28.957Z,16.80
2022-10-06T02:59:55.838Z,16.80
2022-10-06T03:02:22.967Z,16.80
2022-10-06T03:04:49.981Z,16.80
2022-10-06T03:07:16.817Z,16.80
2022-10-06T03:09:43.444Z,16.80
2022-10-06T03:12:10.167Z,16.80
2022-10-06T03:14:36.780Z,16.80
2022-10-06T03:17:03.626Z,16.80
2022-10-06T03:19:30.283Z,16.80
2022-10-06T03:21:56.925Z,16.80
2022-10-06T03:24:23.551Z,16.60
2022-10-06T03:26:50.360Z,16.80
2022-10-06T03:29:17.121Z,16.70
2022-10-06T03:31:43.994Z,16.70
2022-10-06T03:34:11.079Z,16.70
2022-10-06T03:36:37.757Z,16.70
2022-10-06T03:39:05.630Z,16.60
2022-10-06T03:41:34.540Z,16.60
2022-10-06T03:44:01.858Z,16.60
2022-10-06T03:46:33.482Z,16.60
2022-10-06T03:49:01.296Z,16.60
2022-10-06T03:51:37.323Z,16.60
2022-10-06T03:54:04.552Z,16.70
2022-10-06T03:56:33.609Z,16.70
2022-10-06T03:59:03.183Z,16.60
2022-10-06T04:01:39.277Z,16.60
2022-10-06T04:04:06.947Z,16.50
2022-10-06T04:06:35.834Z,16.50
2022-10-06T04:09:05.825Z,16.40
2022-10-06T04:11:35.845Z,16.40
2022-10-06T04:14:08.311Z,16.40
2022-10-06T04:16:40.379Z,16.40
2022-10-06T04:19:10.004Z,16.30
2022-10-06T04:21:38.564Z,16.30
2022-10-06T04:24:06.528Z,16.20
2022-10-06T04:26:36.488Z,16.20
2022-10-06T04:29:03.702Z,16.20
2022-10-06T04:31:32.922Z,16.20
2022-10-06T04:34:01.283Z,16.20
2022-10-06T04:36:30.925Z,16.20
2022-10-06T04:38:59.783Z,16.20
2022-10-06T04:41:29.088Z,16.20
2022-10-06T04:43:56.045Z,16.20
2022-10-06T04:46:42.096Z,16.20
2022-10-06T04:49:14.727Z,16.20
2022-10-06T04:51:44.638Z,16.20
2022-10-06T04:54:11.356Z,16.20
2022-10-06T04:56:38.016Z,16.20
2022-10-06T04:59:04.665Z,16.20
2022-10-06T05:01:36.388Z,16.20
2022-10-06T05:04:05.902Z,16.10
2022-10-06T05:06:35.226Z,16.10
2022-10-06T05:09:05.311Z,16.10
2022-10-06T05:11:31.971Z,16.10
2022-10-06T05:14:00.001Z,16.00
2022-10-06T05:16:29.393Z,16.10
2022-10-06T05:18:56.096Z,16.00
2022-10-06T05:21:28.546Z,16.00
2022-10-06T05:23:55.322Z,16.00
2022-10-06T05:26:24.187Z,16.00
2022-10-06T05:28:51.128Z,16.00
2022-10-06T05:31:19.473Z,16.00
2022-10-06T05:33:46.857Z,15.90
2022-10-06T05:36:18.620Z,16.00
2022-10-06T05:38:45.601Z,16.00
2022-10-06T05:41:21.161Z,15.90
2022-10-06T05:43:48.314Z,15.90
2022-10-06T05:46:30.256Z,15.90
2022-10-06T05:49:05.093Z,15.90
2022-10-06T05:51:33.886Z,15.80
2022-10-06T05:54:01.072Z,15.80
2022-10-06T05:56:30.625Z,15.80
2022-10-06T05:58:58.845Z,15.80
2022-10-06T06:01:37.271Z,15.80
2022-10-06T06:04:09.491Z,15.80
2022-10-06T06:06:46.317Z,15.80
2022-10-06T06:09:21.310Z,15.80
2022-10-06T06:11:49.950Z,15.80
2022-10-06T06:14:19.275Z,15.80
2022-10-06T06:16:46.413Z,15.90
2022-10-06T06:19:14.322Z,16.00
2022-10-06T06:21:41.075Z,16.30
2022-10-06T06:24:07.766Z,16.60
2022-10-06T06:26:37.144Z,16.80
2022-10-06T06:29:05.256Z,16.90
2022-10-06T06:31:37.348Z,17.10
2022-10-06T06:34:06.624Z,17.20
2022-10-06T06:36:40.761Z,17.40
2022-10-06T06:39:12.768Z,17.70
2022-10-06T06:41:41.957Z,18.20
2022-10-06T06:44:11.358Z,18.80
2022-10-06T06:46:39.193Z,19.30
2022-10-06T06:49:06.845Z,19.90
2022-10-06T06:51:40.348Z,20.40
2022-10-06T06:54:08.144Z,21.00
2022-10-06T06:56:35.972Z,21.60
2022-10-06T06:59:08.792Z,22.30
2022-10-06T07:01:35.511Z,22.90
2022-10-06T07:04:02.191Z,23.50
2022-10-06T07:06:30.564Z,24.10
2022-10-06T07:08:58.858Z,24.70
2022-10-06T07:11:41.127Z,25.20
2022-10-06T07:14:12.422Z,25.50
2022-10-06T07:16:58.224Z,25.30
2022-10-06T07:19:43.854Z,25.30
2022-10-06T07:22:28.988Z,25.60
2022-10-06T07:25:08.486Z,25.90
2022-10-06T07:27:43.096Z,26.20
2022-10-06T07:30:13.287Z,26.50
2022-10-06T07:32:39.926Z,26.80
2022-10-06T07:35:07.137Z,27.30
2022-10-06T07:37:36.674Z,27.80
2022-10-06T07:40:05.952Z,28.20
2022-10-06T07:42:47.769Z,28.60
2022-10-06T07:45:45.137Z,29.00
2022-10-06T07:48:17.558Z,29.30
2022-10-06T07:50:47.735Z,29.60
2022-10-06T07:53:15.159Z,29.70
2022-10-06T07:55:45.304Z,29.80
2022-10-06T07:58:24.055Z,30.00
2022-10-06T08:00:52.911Z,29.90
2022-10-06T08:03:20.089Z,29.70
2022-10-06T08:05:48.591Z,29.40
2022-10-06T08:08:16.460Z,29.30
2022-10-06T08:10:44.166Z,29.10
2022-10-06T08:13:10.861Z,28.80
2022-10-06T08:15:37.572Z,28.50
2022-10-06T08:18:16.545Z,28.00
2022-10-06T08:20:51.382Z,27.60
2022-10-06T08:23:17.969Z,27.60
2022-10-06T08:25:50.872Z,27.50
2022-10-06T08:28:17.889Z,27.70
2022-10-06T08:30:44.694Z,27.80
2022-10-06T08:33:11.706Z,27.60
2022-10-06T08:35:39.521Z,27.80
2022-10-06T08:38:07.532Z,28.20
2022-10-06T08:40:34.566Z,28.40
2022-10-06T08:43:13.885Z,28.60
2022-10-06T08:45:44.120Z,28.90
2022-10-06T08:48:29.964Z,29.10
2022-10-06T08:51:15.229Z,29.30
2022-10-06T08:53:48.719Z,29.60
2022-10-06T08:56:22.570Z,30.00
2022-10-06T08:58:59.345Z,30.50
2022-10-06T09:01:33.158Z,30.60
2022-10-06T09:04:03.362Z,30.80
2022-10-06T09:06:39.088Z,30.90
2022-10-06T09:09:41.294Z,31.20
2022-10-06T09:12:21.981Z,31.50
2022-10-06T09:14:56.543Z,31.80
2022-10-06T09:17:30.372Z,32.00
2022-10-06T09:20:02.078Z,32.30
2022-10-06T09:22:31.708Z,32.60
2022-10-06T09:25:18.372Z,32.80
2022-10-06T09:27:50.549Z,33.10
2022-10-06T09:30:17.715Z,33.40
2022-10-06T09:32:47.602Z,33.60
2022-10-06T09:35:22.461Z,33.60
2022-10-06T09:38:08.337Z,33.60
2022-10-06T09:40:48.535Z,33.60
2022-10-06T09:43:41.502Z,33.60
2022-10-06T09:46:27.875Z,33.70
2022-10-06T09:49:19.415Z,33.80
2022-10-06T09:52:12.471Z,33.80
2022-10-06T09:54:41.781Z,33.60
2022-10-06T09:57:28.812Z,33.50
2022-10-06T09:59:59.678Z,33.40
2022-10-06T10:02:38.325Z,33.30
2022-10-06T10:05:16.202Z,33.00
2022-10-06T10:07:43.207Z,32.40
2022-10-06T10:10:18.350Z,31.50
2022-10-06T10:13:00.546Z,30.80
2022-10-06T10:15:33.993Z,30.30
2022-10-06T10:18:03.467Z,30.20
2022-10-06T10:20:35.262Z,30.20
2022-10-06T10:23:04.037Z,30.40
2022-10-06T10:25:33.437Z,30.90
2022-10-06T10:28:17.293Z,31.40
2022-10-06T10:30:58.962Z,32.00
2022-10-06T10:33:49.609Z,32.50
2022-10-06T10:36:51.680Z,32.80
2022-10-06T10:39:31.899Z,33.10
2022-10-06T10:42:02.869Z,33.40
2022-10-06T10:44:41.806Z,33.50
2022-10-06T10:47:19.246Z,33.40
2022-10-06T10:50:11.756Z,33.10
2022-10-06T10:52:44.352Z,32.90
2022-10-06T10:55:35.943Z,32.90
2022-10-06T10:58:13.454Z,33.00
2022-10-06T11:00:44.350Z,33.20
2022-10-06T11:03:11.702Z,33.40
2022-10-06T11:05:38.722Z,33.40
2022-10-06T11:08:09.176Z,33.50
2022-10-06T11:10:46.259Z,33.30
2022-10-06T11:13:16.031Z,32.80
2022-10-06T11:16:07.060Z,32.10
2022-10-06T11:18:36.843Z,31.50
2022-10-06T11:21:40.082Z,30.70
2022-10-06T11:24:31.820Z,30.20
2022-10-06T11:27:17.594Z,29.70
2022-10-06T11:29:49.031Z,28.90
2022-10-06T11:32:18.887Z,28.20
2022-10-06T11:34:49.610Z,27.40
2022-10-06T11:37:38.151Z,26.40
2022-10-06T11:40:28.080Z,25.30
2022-10-06T11:43:19.748Z,24.50
2022-10-06T11:45:59.992Z,23.90
2022-10-06T11:48:29.809Z,23.70
2022-10-06T11:51:17.378Z,23.60
2022-10-06T11:53:45.246Z,23.50
2022-10-06T11:56:17.886Z,23.20
2022-10-06T11:58:56.794Z,23.10
2022-10-06T12:01:32.594Z,22.90
2022-10-06T12:04:08.280Z,22.70
2022-10-06T12:06:43.976Z,22.80
2022-10-06T12:09:26.043Z,22.60
2022-10-06T12:11:58.082Z,22.80
2022-10-06T12:17:44.373Z,23.60
2022-10-06T12:20:16.602Z,23.70
2022-10-06T12:23:03.845Z,23.60
2022-10-06T12:25:52.629Z,23.50
2022-10-06T12:28:37.500Z,23.20
2022-10-06T12:31:39.995Z,23.00
2022-10-06T12:34:50.538Z,23.10
2022-10-06T12:37:39.928Z,23.30
2022-10-06T12:40:49.684Z,23.20
2022-10-06T12:43:19.470Z,23.10
2022-10-06T12:45:55.336Z,23.00
2022-10-06T12:48:24.502Z,23.10
2022-10-06T12:51:38.848Z,23.10
2022-10-06T12:54:19.469Z,23.00
2022-10-06T12:57:14.569Z,22.80
2022-10-06T12:59:41.836Z,22.60
2022-10-06T13:02:20.349Z,22.40
2022-10-06T13:05:01.023Z,22.40
2022-10-06T13:07:33.680Z,22.40
2022-10-06T13:10:15.724Z,22.30
2022-10-06T13:12:47.421Z,22.30
2022-10-06T13:15:15.658Z,22.40
2022-10-06T13:18:01.994Z,22.50
2022-10-06T13:20:28.588Z,22.50
2022-10-06T13:22:57.414Z,22.50
2022-10-06T13:25:24.250Z,22.30
2022-10-06T13:27:52.490Z,22.10
2022-10-06T13:30:21.790Z,21.80
2022-10-06T13:32:53.536Z,21.60
2022-10-06T13:35:24.418Z,21.50
2022-10-06T13:37:53.113Z,21.50
2022-10-06T13:40:44.178Z,21.40
2022-10-06T13:43:18.568Z,21.50
2022-10-06T13:45:48.395Z,21.60
2022-10-06T13:48:19.812Z,21.60
2022-10-06T13:50:48.956Z,21.60
2022-10-06T13:53:45.512Z,21.50
2022-10-06T13:56:34.560Z,21.50
2022-10-06T13:59:15.865Z,21.50
2022-10-06T14:01:42.756Z,21.50
2022-10-06T14:04:18.966Z,21.40
2022-10-06T14:06:58.227Z,21.40
2022-10-06T14:09:32.719Z,21.60
2022-10-06T14:12:15.087Z,21.70
2022-10-06T14:14:50.425Z,21.80
2022-10-06T14:17:25.783Z,21.80
2022-10-06T14:19:52.614Z,21.80
2022-10-06T14:22:48.767Z,21.80
2022-10-06T14:25:15.593Z,21.90
2022-10-06T14:27:42.267Z,21.70
2022-10-06T14:30:10.545Z,21.70
2022-10-06T14:32:38.624Z,21.60
2022-10-06T14:35:07.131Z,21.60
2022-10-06T14:37:34.567Z,21.70
2022-10-06T14:40:01.720Z,21.60
2022-10-06T14:42:28.651Z,21.60
2022-10-06T14:44:55.366Z,21.50
2022-10-06T14:47:22.054Z,21.50
2022-10-06T14:49:48.719Z,21.50
2022-10-06T14:52:15.358Z,21.50
2022-10-06T14:54:43.061Z,21.50
2022-10-06T14:57:09.752Z,21.50
2022-10-06T14:59:36.394Z,21.60
2022-10-06T15:02:03.522Z,21.60
2022-10-06T15:04:31.259Z,21.60
2022-10-06T15:07:16.580Z,21.60
2022-10-06T15:09:43.228Z,21.50
2022-10-06T15:12:09.914Z,21.50
2022-10-06T15:14:39.525Z,21.60
2022-10-06T15:17:06.335Z,21.60
2022-10-06T15:19:34.064Z,21.70
2022-10-06T15:22:01.039Z,21.70
2022-10-06T15:24:27.689Z,21.70
2022-10-06T15:27:13.132Z,21.70
2022-10-06T15:29:39.810Z,21.80
2022-10-06T15:32:06.943Z,21.80
2022-10-06T15:34:34.545Z,21.80
2022-10-06T15:37:03.732Z,21.80
2022-10-06T15:39:34.284Z,21.70
2022-10-06T15:42:00.982Z,21.60
2022-10-06T15:44:31.114Z,21.40
2022-10-06T15:46:58.104Z,21.30
2022-10-06T15:49:26.579Z,21.10
2022-10-06T15:51:56.780Z,21.10
2022-10-06T15:54:37.441Z,20.80
2022-10-06T15:57:06.317Z,21.00
2022-10-06T15:59:34.348Z,20.80
2022-10-06T16:02:07.712Z,20.70
2022-10-06T16:04:40.014Z,20.60
2022-10-06T16:07:09.153Z,20.50
2022-10-06T16:09:53.810Z,20.40
2022-10-06T16:12:22.837Z,20.40
2022-10-06T16:14:49.506Z,20.40
2022-10-06T16:17:17.198Z,20.30
2022-10-06T16:19:44.322Z,20.20
2022-10-06T16:22:16.173Z,20.20
2022-10-06T16:24:42.875Z,20.10
2022-10-06T16:27:13.878Z,20.10
2022-10-06T16:29:40.896Z,20.00
2022-10-06T16:32:07.721Z,19.90
2022-10-06T16:34:34.364Z,19.90
2022-10-06T16:37:00.969Z,19.80
2022-10-06T16:39:27.602Z,19.70
2022-10-06T16:41:54.642Z,19.70
2022-10-06T16:44:21.418Z,19.60
2022-10-06T16:46:48.160Z,19.60
2022-10-06T16:49:15.044Z,19.50
2022-10-06T16:51:43.691Z,19.50
2022-10-06T16:54:12.727Z,19.40
2022-10-06T16:56:44.850Z,19.40
2022-10-06T16:59:22.553Z,19.40
2022-10-06T17:01:50.671Z,19.30
2022-10-06T17:04:19.684Z,19.20
2022-10-06T17:06:51.977Z,19.10
2022-10-06T17:09:21.556Z,19.00
2022-10-06T17:11:51.081Z,18.90
2022-10-06T17:14:18.447Z,18.70
2022-10-06T17:16:46.751Z,18.60
2022-10-06T17:19:14.857Z,18.50
2022-10-06T17:21:47.165Z,18.30
2022-10-06T17:24:17.568Z,18.20
2022-10-06T17:26:47.262Z,18.10
2022-10-06T17:29:21.136Z,18.00
2022-10-06T17:31:50.409Z,17.90
2022-10-06T17:34:21.564Z,17.80
2022-10-06T17:36:51.241Z,17.70
2022-10-06T17:39:20.350Z,17.60
2022-10-06T17:41:48.897Z,17.50
2022-10-06T17:44:25.791Z,17.40
2022-10-06T17:46:55.346Z,17.40
2022-10-06T17:49:24.020Z,17.30
2022-10-06T17:51:52.794Z,17.20
2022-10-06T17:54:21.922Z,17.00
2022-10-06T17:56:51.382Z,16.80
2022-10-06T17:59:23.266Z,16.60
2022-10-06T18:01:51.666Z,16.50
2022-10-06T18:04:19.255Z,16.40
2022-10-06T18:06:46.905Z,16.30
2022-10-06T18:09:15.065Z,16.20
2022-10-06T18:11:44.098Z,16.20
2022-10-06T18:14:12.282Z,16.10
2022-10-06T18:17:02.097Z,16.00
2022-10-06T18:19:29.748Z,16.00
2022-10-06T18:22:00.677Z,15.90
2022-10-06T18:24:29.360Z,15.90
2022-10-06T18:26:59.605Z,15.80
2022-10-06T18:29:31.455Z,15.80
2022-10-06T18:32:14.506Z,15.70
2022-10-06T18:37:31.867Z,15.60
2022-10-06T18:39:58.496Z,15.60
2022-10-06T18:42:25.551Z,15.50
2022-10-06T18:45:11.127Z,15.50
2022-10-06T18:47:56.454Z,15.40
2022-10-06T18:50:23.400Z,15.30
2022-10-06T18:52:50.015Z,15.30
2022-10-06T18:55:17.117Z,15.20
2022-10-06T18:57:45.084Z,15.20
2022-10-06T19:00:12.403Z,15.20
2022-10-06T19:02:39.114Z,15.10
2022-10-06T19:05:06.012Z,15.00
2022-10-06T19:07:32.705Z,15.00
2022-10-06T19:09:59.424Z,14.90
2022-10-06T19:12:26.075Z,14.90
2022-10-06T19:14:52.823Z,14.80
2022-10-06T19:17:22.702Z,14.80
2022-10-06T19:19:51.126Z,14.60
2022-10-06T19:22:19.916Z,14.40
2022-10-06T19:24:48.426Z,14.20
2022-10-06T19:27:17.843Z,14.10
2022-10-06T19:29:46.783Z,14.10
2022-10-06T19:32:16.522Z,14.10
2022-10-06T19:34:44.157Z,14.10
2022-10-06T19:37:11.416Z,14.10
2022-10-06T19:39:42.601Z,14.10
2022-10-06T19:42:35.697Z,14.10
2022-10-06T19:45:03.384Z,14.00
2022-10-06T19:47:29.986Z,14.00
2022-10-06T19:50:02.159Z,13.90
2022-10-06T19:52:31.180Z,13.90
2022-10-06T19:54:57.936Z,14.00
2022-10-06T19:57:25.119Z,13.90
2022-10-06T19:59:51.774Z,13.90
2022-10-06T20:02:18.507Z,13.90
2022-10-06T20:04:45.398Z,13.80
2022-10-06T20:07:12.490Z,13.80
2022-10-06T20:09:39.243Z,13.70
2022-10-06T20:12:06.098Z,13.60
2022-10-06T20:14:32.853Z,13.60
2022-10-06T20:16:59.740Z,13.50
2022-10-06T20:19:26.652Z,13.50
2022-10-06T20:21:53.665Z,13.50
2022-10-06T20:24:23.060Z,13.50
2022-10-06T20:26:50.622Z,13.50
2022-10-06T20:29:21.016Z,13.50
2022-10-06T20:31:51.041Z,13.50
2022-10-06T20:34:21.378Z,13.50
2022-10-06T20:36:51.906Z,13.40
2022-10-06T20:39:41.057Z,13.40
2022-10-06T20:42:13.852Z,13.30
2022-10-06T20:44:42.068Z,13.30
2022-10-06T20:47:10.180Z,13.20
2022-10-06T20:49:37.280Z,13.20
2022-10-06T20:52:05.048Z,13.30
2022-10-06T20:54:34.909Z,13.10
2022-10-06T20:57:04.702Z,13.10
2022-10-06T20:59:32.349Z,13.00
2022-10-06T21:02:00.017Z,13.00
2022-10-06T21:04:27.877Z,12.90
2022-10-06T21:06:54.784Z,12.90
2022-10-06T21:09:21.604Z,12.70
2022-10-06T21:11:48.596Z,12.80
2022-10-06T21:14:15.790Z,12.70
2022-10-06T21:16:44.358Z,12.60
2022-10-06T21:19:20.405Z,12.60
2022-10-06T21:21:53.126Z,12.60
2022-10-06T21:24:20.528Z,12.50
2022-10-06T21:26:47.238Z,12.40
2022-10-06T21:29:15.688Z,12.40
2022-10-06T21:31:43.654Z,12.40
2022-10-06T21:34:10.785Z,12.40
2022-10-06T21:36:38.289Z,12.30
2022-10-06T21:39:05.840Z,12.30
2022-10-06T21:41:35.337Z,12.30
2022-10-06T21:44:07.166Z,12.20
2022-10-06T21:46:39.220Z,12.20
2022-10-06T21:49:09.320Z,12.20
2022-10-06T21:51:36.350Z,12.10
2022-10-06T21:54:03.170Z,12.10
2022-10-06T21:56:32.463Z,12.10
2022-10-06T21:58:59.724Z,12.00
2022-10-06T22:01:31.658Z,12.10
2022-10-06T22:04:00.136Z,12.00
2022-10-06T22:06:28.455Z,12.00
2022-10-06T22:08:56.325Z,12.00
2022-10-06T22:11:28.451Z,11.90
2022-10-06T22:13:58.023Z,11.90
2022-10-06T22:16:26.823Z,11.90
2022-10-06T22:18:54.159Z,11.80
2022-10-06T22:21:32.814Z,11.80
2022-10-06T22:24:07.951Z,11.80
2022-10-06T22:26:37.384Z,11.80
2022-10-06T22:29:06.448Z,11.70
2022-10-06T22:31:34.097Z,11.80
2022-10-06T22:34:04.656Z,11.70
2022-10-06T22:36:31.848Z,11.70
2022-10-06T22:38:58.537Z,11.70
2022-10-06T22:41:25.429Z,11.70
2022-10-06T22:43:57.627Z,11.70
2022-10-06T22:46:29.665Z,11.60
2022-10-06T22:48:56.584Z,11.60
2022-10-06T22:51:26.041Z,11.60
2022-10-06T22:53:57.640Z,11.60
2022-10-06T22:56:26.501Z,11.50
2022-10-06T22:58:53.192Z,11.50
2022-10-06T23:01:20.193Z,11.40
2022-10-06T23:03:47.443Z,11.40
2022-10-06T23:06:16.346Z,11.40
2022-10-06T23:08:43.323Z,11.30
2022-10-06T23:11:12.960Z,11.30
2022-10-06T23:13:40.179Z,11.30
2022-10-06T23:16:09.367Z,11.30
2022-10-06T23:18:38.334Z,11.20
2022-10-06T23:21:06.808Z,11.20
2022-10-06T23:23:33.937Z,11.10
2022-10-06T23:26:04.893Z,11.10
2022-10-06T23:28:31.621Z,11.10
2022-10-06T23:30:58.282Z,11.10
2022-10-06T23:33:24.928Z,11.00
2022-10-06T23:35:59.669Z,11.00
2022-10-06T23:38:26.434Z,10.90
2022-10-06T23:40:53.240Z,10.90
2022-10-06T23:43:20.413Z,10.90
2022-10-06T23:45:47.524Z,10.80
2022-10-06T23:48:14.627Z,10.80
2022-10-06T23:50:41.509Z,10.80
2022-10-06T23:53:08.833Z,10.70
2022-10-06T23:55:35.507Z,10.70
2022-10-06T23:58:02.145Z,10.70
